sensor_id;sensor_type;location;lat;lon;timestamp;pressure;altitude;pressure_sealevel;temperature;humidity
77381;BME280;66439;50.106;10.996;2023-06-22T00:00:15;98890.81;;;22.10;64.21
77381;BME280;66439;50.106;10.996;2023-06-22T00:02:39;98881.77;;;22.11;64.21
77381;BME280;66439;50.106;10.996;2023-06-22T00:04:44;98881.12;;;22.10;64.33
77381;BME280;66439;50.106;10.996;2023-06-22T00:06:47;98881.52;;;22.08;64.35
77381;BME280;66439;50.106;10.996;2023-06-22T00:08:51;98883.02;;;22.09;64.32
77381;BME280;66439;50.106;10.996;2023-06-22T00:10:54;98877.98;;;22.11;64.25
77381;BME280;66439;50.106;10.996;2023-06-22T00:12:57;98876.15;;;22.11;64.11
77381;BME280;66439;50.106;10.996;2023-06-22T00:15:02;98877.77;;;22.10;64.43
77381;BME280;66439;50.106;10.996;2023-06-22T00:17:05;98873.93;;;22.06;64.44
77381;BME280;66439;50.106;10.996;2023-06-22T00:19:08;98874.79;;;22.01;64.50
77381;BME280;66439;50.106;10.996;2023-06-22T00:21:14;98879.23;;;21.97;64.57
77381;BME280;66439;50.106;10.996;2023-06-22T00:23:17;98880.92;;;21.94;64.70
77381;BME280;66439;50.106;10.996;2023-06-22T00:25:21;98887.52;;;21.92;64.82
77381;BME280;66439;50.106;10.996;2023-06-22T00:27:24;98886.99;;;21.90;64.87
77381;BME280;66439;50.106;10.996;2023-06-22T00:29:27;98887.95;;;21.87;64.93
77381;BME280;66439;50.106;10.996;2023-06-22T00:31:31;98892.97;;;21.86;64.78
77381;BME280;66439;50.106;10.996;2023-06-22T00:33:34;98896.59;;;21.86;64.80
77381;BME280;66439;50.106;10.996;2023-06-22T00:35:40;98898.08;;;21.87;64.81
77381;BME280;66439;50.106;10.996;2023-06-22T00:37:45;98897.64;;;21.89;64.77
77381;BME280;66439;50.106;10.996;2023-06-22T00:39:52;98902.28;;;21.90;64.83
77381;BME280;66439;50.106;10.996;2023-06-22T00:41:56;98906.30;;;21.93;64.56
77381;BME280;66439;50.106;10.996;2023-06-22T00:43:58;98906.50;;;21.95;64.25
77381;BME280;66439;50.106;10.996;2023-06-22T00:46:08;98902.17;;;21.96;64.31
77381;BME280;66439;50.106;10.996;2023-06-22T00:48:12;98903.69;;;21.97;64.40
77381;BME280;66439;50.106;10.996;2023-06-22T00:50:22;98906.15;;;21.97;64.22
77381;BME280;66439;50.106;10.996;2023-06-22T00:52:27;98911.05;;;21.97;64.24
77381;BME280;66439;50.106;10.996;2023-06-22T00:54:37;98907.21;;;21.96;64.10
77381;BME280;66439;50.106;10.996;2023-06-22T00:56:40;98901.45;;;21.95;64.30
77381;BME280;66439;50.106;10.996;2023-06-22T00:58:45;98896.70;;;21.91;64.34
77381;BME280;66439;50.106;10.996;2023-06-22T01:00:51;98887.65;;;21.85;64.58
77381;BME280;66439;50.106;10.996;2023-06-22T01:03:03;98876.38;;;21.83;64.37
77381;BME280;66439;50.106;10.996;2023-06-22T01:05:07;98869.54;;;21.86;64.28
77381;BME280;66439;50.106;10.996;2023-06-22T01:07:25;98864.46;;;21.88;64.31
77381;BME280;66439;50.106;10.996;2023-06-22T01:09:35;98861.17;;;21.89;64.30
77381;BME280;66439;50.106;10.996;2023-06-22T01:12:00;98870.81;;;21.89;64.48
77381;BME280;66439;50.106;10.996;2023-06-22T01:14:11;98869.29;;;21.89;64.55
77381;BME280;66439;50.106;10.996;2023-06-22T01:16:20;98863.92;;;21.89;64.31
77381;BME280;66439;50.106;10.996;2023-06-22T01:18:30;98862.25;;;21.89;64.40
77381;BME280;66439;50.106;10.996;2023-06-22T01:20:37;98864.95;;;21.87;64.54
77381;BME280;66439;50.106;10.996;2023-06-22T01:23:05;98865.54;;;21.87;64.62
77381;BME280;66439;50.106;10.996;2023-06-22T01:25:19;98863.06;;;21.83;64.77
77381;BME280;66439;50.106;10.996;2023-06-22T01:27:33;98857.86;;;21.79;65.04
77381;BME280;66439;50.106;10.996;2023-06-22T01:29:40;98847.98;;;21.77;65.00
77381;BME280;66439;50.106;10.996;2023-06-22T01:31:48;98836.41;;;21.73;65.07
77381;BME280;66439;50.106;10.996;2023-06-22T01:33:58;98826.89;;;21.69;65.19
77381;BME280;66439;50.106;10.996;2023-06-22T01:36:04;98816.13;;;21.69;65.11
77381;BME280;66439;50.106;10.996;2023-06-22T01:38:08;98805.52;;;21.69;65.04
77381;BME280;66439;50.106;10.996;2023-06-22T01:40:11;98801.08;;;21.69;65.05
77381;BME280;66439;50.106;10.996;2023-06-22T01:42:16;98803.40;;;21.68;65.02
77381;BME280;66439;50.106;10.996;2023-06-22T01:44:19;98805.26;;;21.65;65.19
77381;BME280;66439;50.106;10.996;2023-06-22T01:46:23;98808.92;;;21.55;65.12
77381;BME280;66439;50.106;10.996;2023-06-22T01:48:27;98804.49;;;21.46;65.69
77381;BME280;66439;50.106;10.996;2023-06-22T01:50:30;98798.45;;;21.39;66.00
77381;BME280;66439;50.106;10.996;2023-06-22T01:52:34;98795.94;;;21.34;66.13
77381;BME280;66439;50.106;10.996;2023-06-22T01:54:38;98797.95;;;21.33;66.10
77381;BME280;66439;50.106;10.996;2023-06-22T01:56:42;98801.37;;;21.35;66.18
77381;BME280;66439;50.106;10.996;2023-06-22T01:58:54;98807.42;;;21.35;66.16
77381;BME280;66439;50.106;10.996;2023-06-22T02:01:11;98809.91;;;21.31;66.51
77381;BME280;66439;50.106;10.996;2023-06-22T02:03:19;98814.46;;;21.29;66.57
77381;BME280;66439;50.106;10.996;2023-06-22T02:05:34;98813.16;;;21.29;66.65
77381;BME280;66439;50.106;10.996;2023-06-22T02:08:04;98812.70;;;21.28;66.35
77381;BME280;66439;50.106;10.996;2023-06-22T02:10:10;98816.86;;;21.27;66.69
77381;BME280;66439;50.106;10.996;2023-06-22T02:12:18;98818.73;;;21.29;66.51
77381;BME280;66439;50.106;10.996;2023-06-22T02:14:24;98817.33;;;21.32;66.38
77381;BME280;66439;50.106;10.996;2023-06-22T02:16:31;98822.23;;;21.34;66.44
77381;BME280;66439;50.106;10.996;2023-06-22T02:18:34;98819.02;;;21.36;66.30
77381;BME280;66439;50.106;10.996;2023-06-22T02:20:39;98820.40;;;21.38;66.40
77381;BME280;66439;50.106;10.996;2023-06-22T02:22:44;98818.62;;;21.39;66.33
77381;BME280;66439;50.106;10.996;2023-06-22T02:24:47;98818.60;;;21.41;66.35
77381;BME280;66439;50.106;10.996;2023-06-22T02:26:50;98823.42;;;21.42;66.19
77381;BME280;66439;50.106;10.996;2023-06-22T02:28:55;98821.58;;;21.42;66.15
77381;BME280;66439;50.106;10.996;2023-06-22T02:30:59;98826.22;;;21.41;66.32
77381;BME280;66439;50.106;10.996;2023-06-22T02:33:02;98832.17;;;21.37;66.45
77381;BME280;66439;50.106;10.996;2023-06-22T02:35:15;98842.42;;;21.30;66.74
77381;BME280;66439;50.106;10.996;2023-06-22T02:37:21;98846.30;;;21.21;66.83
77381;BME280;66439;50.106;10.996;2023-06-22T02:39:30;98854.61;;;21.16;66.91
77381;BME280;66439;50.106;10.996;2023-06-22T02:41:33;98867.23;;;21.17;67.05
77381;BME280;66439;50.106;10.996;2023-06-22T02:43:37;98883.27;;;21.18;67.18
77381;BME280;66439;50.106;10.996;2023-06-22T02:45:40;98904.41;;;21.19;67.00
77381;BME280;66439;50.106;10.996;2023-06-22T02:47:44;98935.63;;;21.21;67.14
77381;BME280;66439;50.106;10.996;2023-06-22T02:49:47;98968.29;;;21.24;67.03
77381;BME280;66439;50.106;10.996;2023-06-22T02:51:51;99000.52;;;21.28;66.96
77381;BME280;66439;50.106;10.996;2023-06-22T02:53:55;99037.69;;;21.33;67.09
77381;BME280;66439;50.106;10.996;2023-06-22T02:56:03;99065.80;;;21.39;67.01
77381;BME280;66439;50.106;10.996;2023-06-22T02:58:11;99084.33;;;21.44;66.79
77381;BME280;66439;50.106;10.996;2023-06-22T03:00:15;99090.70;;;21.47;66.58
77381;BME280;66439;50.106;10.996;2023-06-22T03:02:21;99091.94;;;21.49;66.44
77381;BME280;66439;50.106;10.996;2023-06-22T03:04:24;99089.41;;;21.50;66.22
77381;BME280;66439;50.106;10.996;2023-06-22T03:06:28;99088.70;;;21.50;66.09
77381;BME280;66439;50.106;10.996;2023-06-22T03:08:33;99086.94;;;21.51;66.00
77381;BME280;66439;50.106;10.996;2023-06-22T03:10:37;99075.89;;;21.51;66.05
77381;BME280;66439;50.106;10.996;2023-06-22T03:12:41;99073.84;;;21.51;66.02
77381;BME280;66439;50.106;10.996;2023-06-22T03:14:45;99069.52;;;21.51;65.94
77381;BME280;66439;50.106;10.996;2023-06-22T03:16:50;99057.66;;;21.54;66.04
77381;BME280;66439;50.106;10.996;2023-06-22T03:18:54;99032.27;;;21.56;66.03
77381;BME280;66439;50.106;10.996;2023-06-22T03:20:56;99004.50;;;21.56;66.32
77381;BME280;66439;50.106;10.996;2023-06-22T03:23:05;98992.27;;;21.48;66.87
77381;BME280;66439;50.106;10.996;2023-06-22T03:25:12;99000.13;;;21.38;67.17
77381;BME280;66439;50.106;10.996;2023-06-22T03:27:20;98996.83;;;21.30;67.34
77381;BME280;66439;50.106;10.996;2023-06-22T03:29:27;98989.05;;;21.25;67.66
77381;BME280;66439;50.106;10.996;2023-06-22T03:31:33;98989.23;;;21.25;67.31
77381;BME280;66439;50.106;10.996;2023-06-22T03:33:39;98992.51;;;21.30;67.34
77381;BME280;66439;50.106;10.996;2023-06-22T03:35:44;99000.27;;;21.34;67.55
77381;BME280;66439;50.106;10.996;2023-06-22T03:37:46;98999.59;;;21.32;67.46
77381;BME280;66439;50.106;10.996;2023-06-22T03:39:51;98995.41;;;21.32;67.54
77381;BME280;66439;50.106;10.996;2023-06-22T03:41:59;98977.36;;;21.35;67.45
77381;BME280;66439;50.106;10.996;2023-06-22T03:44:05;98936.24;;;21.38;67.37
77381;BME280;66439;50.106;10.996;2023-06-22T03:46:08;98879.60;;;21.40;67.39
77381;BME280;66439;50.106;10.996;2023-06-22T03:48:13;98844.00;;;21.39;67.75
77381;BME280;66439;50.106;10.996;2023-06-22T03:50:16;98815.80;;;21.38;67.71
77381;BME280;66439;50.106;10.996;2023-06-22T03:52:19;98795.56;;;21.41;67.66
77381;BME280;66439;50.106;10.996;2023-06-22T03:54:22;98769.33;;;21.45;67.69
77381;BME280;66439;50.106;10.996;2023-06-22T03:56:26;98750.21;;;21.48;67.63
77381;BME280;66439;50.106;10.996;2023-06-22T03:58:30;98737.91;;;21.52;67.46
77381;BME280;66439;50.106;10.996;2023-06-22T04:00:37;98725.89;;;21.56;67.35
77381;BME280;66439;50.106;10.996;2023-06-22T04:02:43;98715.23;;;21.59;67.30
77381;BME280;66439;50.106;10.996;2023-06-22T04:04:47;98715.77;;;21.63;67.14
77381;BME280;66439;50.106;10.996;2023-06-22T04:06:52;98713.31;;;21.68;66.91
77381;BME280;66439;50.106;10.996;2023-06-22T04:08:55;98718.08;;;21.69;66.72
77381;BME280;66439;50.106;10.996;2023-06-22T04:10:58;98723.09;;;21.72;66.59
77381;BME280;66439;50.106;10.996;2023-06-22T04:13:01;98732.52;;;21.73;66.57
77381;BME280;66439;50.106;10.996;2023-06-22T04:15:04;98732.53;;;21.74;66.35
77381;BME280;66439;50.106;10.996;2023-06-22T04:17:07;98735.91;;;21.78;66.35
77381;BME280;66439;50.106;10.996;2023-06-22T04:19:10;98740.65;;;21.81;66.25
77381;BME280;66439;50.106;10.996;2023-06-22T04:21:19;98743.70;;;21.82;66.05
77381;BME280;66439;50.106;10.996;2023-06-22T04:23:23;98741.98;;;21.83;65.99
77381;BME280;66439;50.106;10.996;2023-06-22T04:25:27;98743.50;;;21.84;65.90
77381;BME280;66439;50.106;10.996;2023-06-22T04:27:30;98753.64;;;21.81;65.91
77381;BME280;66439;50.106;10.996;2023-06-22T04:29:34;98770.99;;;21.79;66.01
77381;BME280;66439;50.106;10.996;2023-06-22T04:31:37;98774.71;;;21.72;66.28
77381;BME280;66439;50.106;10.996;2023-06-22T04:33:41;98770.16;;;21.66;66.37
77381;BME280;66439;50.106;10.996;2023-06-22T04:35:47;98767.46;;;21.62;66.52
77381;BME280;66439;50.106;10.996;2023-06-22T04:37:50;98773.48;;;21.59;66.64
77381;BME280;66439;50.106;10.996;2023-06-22T04:39:59;98773.27;;;21.58;67.00
77381;BME280;66439;50.106;10.996;2023-06-22T04:42:03;98774.86;;;21.53;67.17
77381;BME280;66439;50.106;10.996;2023-06-22T04:44:06;98773.80;;;21.49;67.50
77381;BME280;66439;50.106;10.996;2023-06-22T04:46:09;98777.34;;;21.47;67.61
77381;BME280;66439;50.106;10.996;2023-06-22T04:48:13;98772.30;;;21.46;67.59
77381;BME280;66439;50.106;10.996;2023-06-22T04:50:19;98768.45;;;21.45;67.35
77381;BME280;66439;50.106;10.996;2023-06-22T04:52:26;98763.16;;;21.47;67.35
77381;BME280;66439;50.106;10.996;2023-06-22T04:54:28;98765.00;;;21.51;67.14
77381;BME280;66439;50.106;10.996;2023-06-22T04:56:33;98771.17;;;21.60;67.05
77381;BME280;66439;50.106;10.996;2023-06-22T04:58:36;98778.75;;;21.66;66.84
77381;BME280;66439;50.106;10.996;2023-06-22T05:00:40;98778.59;;;21.66;66.54
77381;BME280;66439;50.106;10.996;2023-06-22T05:02:46;98774.46;;;21.67;66.53
77381;BME280;66439;50.106;10.996;2023-06-22T05:04:50;98771.51;;;21.70;66.44
77381;BME280;66439;50.106;10.996;2023-06-22T05:06:54;98769.47;;;21.74;66.49
77381;BME280;66439;50.106;10.996;2023-06-22T05:08:58;98771.40;;;21.77;66.36
77381;BME280;66439;50.106;10.996;2023-06-22T05:11:02;98771.08;;;21.81;66.26
77381;BME280;66439;50.106;10.996;2023-06-22T05:13:11;98780.27;;;21.85;66.15
77381;BME280;66439;50.106;10.996;2023-06-22T05:15:14;98784.04;;;21.94;65.99
77381;BME280;66439;50.106;10.996;2023-06-22T05:17:18;98785.27;;;21.98;65.84
77381;BME280;66439;50.106;10.996;2023-06-22T05:19:23;98783.38;;;22.00;65.95
77381;BME280;66439;50.106;10.996;2023-06-22T05:21:26;98778.21;;;22.01;65.99
77381;BME280;66439;50.106;10.996;2023-06-22T05:23:32;98774.29;;;22.04;66.08
77381;BME280;66439;50.106;10.996;2023-06-22T05:25:35;98772.14;;;22.06;65.93
77381;BME280;66439;50.106;10.996;2023-06-22T05:27:38;98772.98;;;22.10;65.93
77381;BME280;66439;50.106;10.996;2023-06-22T05:29:42;98767.89;;;22.10;65.77
77381;BME280;66439;50.106;10.996;2023-06-22T05:31:46;98770.83;;;22.12;66.01
77381;BME280;66439;50.106;10.996;2023-06-22T05:33:52;98772.20;;;22.15;65.89
77381;BME280;66439;50.106;10.996;2023-06-22T05:35:55;98778.08;;;22.17;65.63
77381;BME280;66439;50.106;10.996;2023-06-22T05:37:58;98783.52;;;22.19;65.84
77381;BME280;66439;50.106;10.996;2023-06-22T05:40:08;98788.89;;;22.23;65.72
77381;BME280;66439;50.106;10.996;2023-06-22T05:42:14;98791.86;;;22.27;65.71
77381;BME280;66439;50.106;10.996;2023-06-22T05:44:17;98789.13;;;22.30;65.64
77381;BME280;66439;50.106;10.996;2023-06-22T05:46:20;98793.31;;;22.32;65.54
77381;BME280;66439;50.106;10.996;2023-06-22T05:48:25;98789.83;;;22.37;65.55
77381;BME280;66439;50.106;10.996;2023-06-22T05:50:28;98793.39;;;22.40;65.51
77381;BME280;66439;50.106;10.996;2023-06-22T05:52:31;98797.28;;;22.41;65.41
77381;BME280;66439;50.106;10.996;2023-06-22T05:54:34;98803.95;;;22.41;65.29
77381;BME280;66439;50.106;10.996;2023-06-22T05:56:38;98803.20;;;22.42;65.25
77381;BME280;66439;50.106;10.996;2023-06-22T05:58:45;98800.27;;;22.47;65.01
77381;BME280;66439;50.106;10.996;2023-06-22T06:00:50;98792.53;;;22.50;64.97
77381;BME280;66439;50.106;10.996;2023-06-22T06:02:53;98795.77;;;22.54;65.03
77381;BME280;66439;50.106;10.996;2023-06-22T06:04:56;98798.23;;;22.57;64.94
77381;BME280;66439;50.106;10.996;2023-06-22T06:06:59;98796.73;;;22.58;64.74
77381;BME280;66439;50.106;10.996;2023-06-22T06:09:04;98794.14;;;22.59;64.77
77381;BME280;66439;50.106;10.996;2023-06-22T06:11:08;98791.86;;;22.60;64.68
77381;BME280;66439;50.106;10.996;2023-06-22T06:13:11;98794.23;;;22.60;64.77
77381;BME280;66439;50.106;10.996;2023-06-22T06:15:15;98791.68;;;22.65;64.51
77381;BME280;66439;50.106;10.996;2023-06-22T06:17:19;98793.99;;;22.70;64.74
77381;BME280;66439;50.106;10.996;2023-06-22T06:19:22;98792.34;;;22.73;64.54
77381;BME280;66439;50.106;10.996;2023-06-22T06:21:26;98792.75;;;22.78;64.51
77381;BME280;66439;50.106;10.996;2023-06-22T06:23:33;98791.35;;;22.80;64.13
77381;BME280;66439;50.106;10.996;2023-06-22T06:25:38;98792.05;;;22.80;63.77
77381;BME280;66439;50.106;10.996;2023-06-22T06:27:44;98793.40;;;22.79;64.06
77381;BME280;66439;50.106;10.996;2023-06-22T06:29:49;98789.86;;;22.81;64.00
77381;BME280;66439;50.106;10.996;2023-06-22T06:31:52;98786.73;;;22.84;64.01
77381;BME280;66439;50.106;10.996;2023-06-22T06:33:56;98783.83;;;22.89;63.85
77381;BME280;66439;50.106;10.996;2023-06-22T06:36:01;98778.35;;;22.93;63.59
77381;BME280;66439;50.106;10.996;2023-06-22T06:38:07;98777.94;;;22.97;63.52
77381;BME280;66439;50.106;10.996;2023-06-22T06:40:13;98771.15;;;23.04;63.39
77381;BME280;66439;50.106;10.996;2023-06-22T06:42:17;98776.55;;;23.10;63.28
77381;BME280;66439;50.106;10.996;2023-06-22T06:44:22;98771.84;;;23.13;63.01
77381;BME280;66439;50.106;10.996;2023-06-22T06:46:25;98770.55;;;23.16;62.96
77381;BME280;66439;50.106;10.996;2023-06-22T06:48:29;98769.89;;;23.22;63.02
77381;BME280;66439;50.106;10.996;2023-06-22T06:50:32;98769.42;;;23.27;63.15
77381;BME280;66439;50.106;10.996;2023-06-22T06:52:37;98767.54;;;23.30;62.86
77381;BME280;66439;50.106;10.996;2023-06-22T06:54:41;98765.77;;;23.36;62.94
77381;BME280;66439;50.106;10.996;2023-06-22T06:56:44;98757.17;;;23.42;62.75
77381;BME280;66439;50.106;10.996;2023-06-22T06:58:51;98755.13;;;23.47;62.28
77381;BME280;66439;50.106;10.996;2023-06-22T07:00:55;98753.35;;;23.51;62.12
77381;BME280;66439;50.106;10.996;2023-06-22T07:03:00;98753.52;;;23.53;62.07
77381;BME280;66439;50.106;10.996;2023-06-22T07:05:03;98752.18;;;23.57;61.88
77381;BME280;66439;50.106;10.996;2023-06-22T07:07:06;98749.20;;;23.61;61.69
77381;BME280;66439;50.106;10.996;2023-06-22T07:09:09;98749.19;;;23.67;61.64
77381;BME280;66439;50.106;10.996;2023-06-22T07:11:14;98751.11;;;23.72;61.30
77381;BME280;66439;50.106;10.996;2023-06-22T07:13:17;98751.71;;;23.75;61.14
77381;BME280;66439;50.106;10.996;2023-06-22T07:15:19;98746.78;;;23.82;61.24
77381;BME280;66439;50.106;10.996;2023-06-22T07:17:22;98741.48;;;23.90;61.10
77381;BME280;66439;50.106;10.996;2023-06-22T07:19:27;98742.90;;;23.97;61.07
77381;BME280;66439;50.106;10.996;2023-06-22T07:21:33;98736.54;;;24.01;60.49
77381;BME280;66439;50.106;10.996;2023-06-22T07:23:42;98735.41;;;24.05;60.18
77381;BME280;66439;50.106;10.996;2023-06-22T07:25:45;98733.02;;;24.09;60.31
77381;BME280;66439;50.106;10.996;2023-06-22T07:28:04;98737.27;;;24.13;60.00
77381;BME280;66439;50.106;10.996;2023-06-22T07:30:09;98739.11;;;24.17;60.05
77381;BME280;66439;50.106;10.996;2023-06-22T07:32:13;98735.31;;;24.22;59.79
77381;BME280;66439;50.106;10.996;2023-06-22T07:34:17;98731.57;;;24.28;59.97
77381;BME280;66439;50.106;10.996;2023-06-22T07:36:20;98727.38;;;24.35;59.80
77381;BME280;66439;50.106;10.996;2023-06-22T07:38:25;98720.61;;;24.43;59.78
77381;BME280;66439;50.106;10.996;2023-06-22T07:40:29;98722.29;;;24.49;59.29
77381;BME280;66439;50.106;10.996;2023-06-22T07:42:32;98722.88;;;24.54;59.36
77381;BME280;66439;50.106;10.996;2023-06-22T07:44:38;98719.40;;;24.60;59.07
77381;BME280;66439;50.106;10.996;2023-06-22T07:46:42;98721.02;;;24.63;58.77
77381;BME280;66439;50.106;10.996;2023-06-22T07:48:46;98724.27;;;24.67;58.33
77381;BME280;66439;50.106;10.996;2023-06-22T07:50:50;98719.38;;;24.69;58.25
77381;BME280;66439;50.106;10.996;2023-06-22T07:52:53;98722.69;;;24.73;58.40
77381;BME280;66439;50.106;10.996;2023-06-22T07:54:59;98723.70;;;24.79;58.24
77381;BME280;66439;50.106;10.996;2023-06-22T07:57:05;98722.83;;;24.85;58.28
77381;BME280;66439;50.106;10.996;2023-06-22T07:59:08;98719.11;;;24.90;58.16
77381;BME280;66439;50.106;10.996;2023-06-22T08:01:11;98718.44;;;24.95;58.07
77381;BME280;66439;50.106;10.996;2023-06-22T08:03:14;98716.52;;;24.99;57.88
77381;BME280;66439;50.106;10.996;2023-06-22T08:05:19;98714.94;;;25.05;57.60
77381;BME280;66439;50.106;10.996;2023-06-22T08:07:24;98720.92;;;25.11;57.75
77381;BME280;66439;50.106;10.996;2023-06-22T08:09:31;98727.31;;;25.18;57.31
77381;BME280;66439;50.106;10.996;2023-06-22T08:11:34;98714.28;;;25.26;57.00
77381;BME280;66439;50.106;10.996;2023-06-22T08:13:37;98703.35;;;25.34;57.15
77381;BME280;66439;50.106;10.996;2023-06-22T08:15:40;98696.03;;;25.41;56.53
77381;BME280;66439;50.106;10.996;2023-06-22T08:17:44;98694.58;;;25.46;56.37
77381;BME280;66439;50.106;10.996;2023-06-22T08:19:51;98699.38;;;25.54;56.49
77381;BME280;66439;50.106;10.996;2023-06-22T08:21:53;98701.30;;;25.60;56.23
77381;BME280;66439;50.106;10.996;2023-06-22T08:23:57;98704.27;;;25.66;55.86
77381;BME280;66439;50.106;10.996;2023-06-22T08:25:59;98700.42;;;25.72;55.48
77381;BME280;66439;50.106;10.996;2023-06-22T08:28:05;98698.38;;;25.76;55.58
77381;BME280;66439;50.106;10.996;2023-06-22T08:30:09;98691.13;;;25.82;55.48
77381;BME280;66439;50.106;10.996;2023-06-22T08:32:14;98687.81;;;25.87;55.26
77381;BME280;66439;50.106;10.996;2023-06-22T08:34:20;98686.63;;;25.92;55.42
77381;BME280;66439;50.106;10.996;2023-06-22T08:36:25;98681.30;;;25.99;55.22
77381;BME280;66439;50.106;10.996;2023-06-22T08:38:33;98681.63;;;26.06;54.86
77381;BME280;66439;50.106;10.996;2023-06-22T08:40:41;98679.39;;;26.13;54.47
77381;BME280;66439;50.106;10.996;2023-06-22T08:42:48;98677.95;;;26.21;54.21
77381;BME280;66439;50.106;10.996;2023-06-22T08:44:51;98677.08;;;26.28;54.22
77381;BME280;66439;50.106;10.996;2023-06-22T08:46:54;98674.88;;;26.31;53.83
77381;BME280;66439;50.106;10.996;2023-06-22T08:48:59;98675.42;;;26.34;53.98
77381;BME280;66439;50.106;10.996;2023-06-22T08:51:04;98673.48;;;26.40;53.18
77381;BME280;66439;50.106;10.996;2023-06-22T08:53:07;98675.13;;;26.46;53.06
77381;BME280;66439;50.106;10.996;2023-06-22T08:55:12;98676.60;;;26.51;52.40
77381;BME280;66439;50.106;10.996;2023-06-22T08:57:16;98674.41;;;26.57;52.27
77381;BME280;66439;50.106;10.996;2023-06-22T08:59:19;98671.13;;;26.63;52.01
77381;BME280;66439;50.106;10.996;2023-06-22T09:01:22;98669.44;;;26.69;51.84
77381;BME280;66439;50.106;10.996;2023-06-22T09:03:25;98673.23;;;26.76;51.76
77381;BME280;66439;50.106;10.996;2023-06-22T09:05:29;98675.09;;;26.82;51.71
77381;BME280;66439;50.106;10.996;2023-06-22T09:07:33;98681.82;;;26.88;51.55
77381;BME280;66439;50.106;10.996;2023-06-22T09:09:37;98677.23;;;26.95;51.65
77381;BME280;66439;50.106;10.996;2023-06-22T09:11:40;98668.08;;;26.98;51.56
77381;BME280;66439;50.106;10.996;2023-06-22T09:13:43;98664.98;;;27.00;51.01
77381;BME280;66439;50.106;10.996;2023-06-22T09:15:46;98663.51;;;27.05;50.96
77381;BME280;66439;50.106;10.996;2023-06-22T09:17:49;98666.17;;;27.12;50.72
77381;BME280;66439;50.106;10.996;2023-06-22T09:19:53;98663.95;;;27.20;50.14
77381;BME280;66439;50.106;10.996;2023-06-22T09:21:57;98656.85;;;27.24;49.93
77381;BME280;66439;50.106;10.996;2023-06-22T09:24:02;98659.88;;;27.29;49.74
77381;BME280;66439;50.106;10.996;2023-06-22T09:26:05;98659.17;;;27.34;49.64
77381;BME280;66439;50.106;10.996;2023-06-22T09:28:12;98658.18;;;27.39;49.63
77381;BME280;66439;50.106;10.996;2023-06-22T09:30:15;98654.96;;;27.45;49.41
77381;BME280;66439;50.106;10.996;2023-06-22T09:32:17;98653.13;;;27.52;48.82
77381;BME280;66439;50.106;10.996;2023-06-22T09:34:20;98649.34;;;27.56;48.25
77381;BME280;66439;50.106;10.996;2023-06-22T09:36:23;98648.99;;;27.58;47.96
77381;BME280;66439;50.106;10.996;2023-06-22T09:38:26;98645.62;;;27.61;47.95
77381;BME280;66439;50.106;10.996;2023-06-22T09:40:30;98642.78;;;27.65;47.60
77381;BME280;66439;50.106;10.996;2023-06-22T09:42:35;98639.83;;;27.68;47.75
77381;BME280;66439;50.106;10.996;2023-06-22T09:44:37;98635.29;;;27.72;47.68
77381;BME280;66439;50.106;10.996;2023-06-22T09:46:40;98634.27;;;27.77;47.41
77381;BME280;66439;50.106;10.996;2023-06-22T09:48:43;98635.90;;;27.84;47.41
77381;BME280;66439;50.106;10.996;2023-06-22T09:50:47;98625.48;;;27.88;46.97
77381;BME280;66439;50.106;10.996;2023-06-22T09:52:51;98629.61;;;27.94;46.93
77381;BME280;66439;50.106;10.996;2023-06-22T09:54:57;98628.00;;;27.98;46.71
77381;BME280;66439;50.106;10.996;2023-06-22T09:57:00;98610.24;;;28.04;46.77
77381;BME280;66439;50.106;10.996;2023-06-22T09:59:05;98598.02;;;28.10;46.84
77381;BME280;66439;50.106;10.996;2023-06-22T10:01:20;98611.86;;;28.16;46.63
77381;BME280;66439;50.106;10.996;2023-06-22T10:03:25;98620.80;;;28.20;46.11
77381;BME280;66439;50.106;10.996;2023-06-22T10:05:31;98619.58;;;28.19;45.31
77381;BME280;66439;50.106;10.996;2023-06-22T10:07:39;98617.77;;;28.19;45.85
77381;BME280;66439;50.106;10.996;2023-06-22T10:09:45;98618.69;;;28.22;45.98
77381;BME280;66439;50.106;10.996;2023-06-22T10:11:49;98614.36;;;28.28;45.88
77381;BME280;66439;50.106;10.996;2023-06-22T10:13:52;98615.45;;;28.34;45.62
77381;BME280;66439;50.106;10.996;2023-06-22T10:15:54;98621.37;;;28.39;45.29
77381;BME280;66439;50.106;10.996;2023-06-22T10:17:57;98619.12;;;28.42;45.25
77381;BME280;66439;50.106;10.996;2023-06-22T10:20:01;98616.38;;;28.45;44.75
77381;BME280;66439;50.106;10.996;2023-06-22T10:22:14;98614.28;;;28.46;44.52
77381;BME280;66439;50.106;10.996;2023-06-22T10:24:17;98607.56;;;28.47;44.67
77381;BME280;66439;50.106;10.996;2023-06-22T10:26:20;98605.96;;;28.48;44.44
77381;BME280;66439;50.106;10.996;2023-06-22T10:28:22;98604.98;;;28.51;44.74
77381;BME280;66439;50.106;10.996;2023-06-22T10:30:25;98607.29;;;28.53;44.87
77381;BME280;66439;50.106;10.996;2023-06-22T10:32:28;98614.05;;;28.57;45.03
77381;BME280;66439;50.106;10.996;2023-06-22T10:34:34;98614.30;;;28.64;45.39
77381;BME280;66439;50.106;10.996;2023-06-22T10:36:38;98614.59;;;28.72;45.52
77381;BME280;66439;50.106;10.996;2023-06-22T10:38:41;98610.58;;;28.76;44.67
77381;BME280;66439;50.106;10.996;2023-06-22T10:40:45;98608.11;;;28.80;44.37
77381;BME280;66439;50.106;10.996;2023-06-22T10:42:50;98607.95;;;28.86;43.84
77381;BME280;66439;50.106;10.996;2023-06-22T10:44:54;98603.92;;;28.91;42.68
77381;BME280;66439;50.106;10.996;2023-06-22T10:46:57;98601.31;;;28.92;42.12
77381;BME280;66439;50.106;10.996;2023-06-22T10:49:01;98606.96;;;28.98;43.02
77381;BME280;66439;50.106;10.996;2023-06-22T10:51:04;98603.09;;;29.02;43.27
77381;BME280;66439;50.106;10.996;2023-06-22T10:53:08;98598.40;;;29.09;43.29